createdAt,value
2018-12-20T00:01:32.047Z,38.73
2018-12-20T00:04:00.324Z,37.58
2018-12-20T00:06:29.872Z,39.13
2018-12-20T00:08:58.781Z,39.60
2018-12-20T00:11:28.134Z,42.23
2018-12-20T00:13:57.505Z,93.55
2018-12-20T00:16:26.760Z,41.40
2018-12-20T00:18:55.538Z,39.30
2018-12-20T00:21:24.947Z,38.15
2018-12-20T00:23:53.446Z,40.67
2018-12-20T00:26:22.362Z,44.10
2018-12-20T00:28:50.590Z,43.63
2018-12-20T00:31:20.062Z,43.08
2018-12-20T00:33:48.061Z,43.65
2018-12-20T00:36:16.382Z,41.13
2018-12-20T00:38:45.038Z,46.42
2018-12-20T00:41:16.152Z,42.50
2018-12-20T00:43:44.482Z,43.98
2018-12-20T00:46:12.570Z,46.13
2018-12-20T00:48:42.482Z,44.33
2018-12-20T00:51:11.896Z,43.65
2018-12-20T00:53:41.418Z,44.05
2018-12-20T00:56:10.851Z,44.35
2018-12-20T00:58:39.221Z,45.23
2018-12-20T01:01:08.569Z,46.37
2018-12-20T01:03:37.637Z,48.52
2018-12-20T01:06:07.150Z,41.68
2018-12-20T01:08:35.952Z,47.08
2018-12-20T01:11:07.281Z,44.80
2018-12-20T01:13:35.757Z,48.52
2018-12-20T01:16:05.308Z,47.58
2018-12-20T01:18:33.513Z,48.85
2018-12-20T01:21:02.437Z,46.55
2018-12-20T01:23:31.562Z,48.00
2018-12-20T01:25:59.943Z,46.37
2018-12-20T01:28:29.172Z,48.45
2018-12-20T01:30:58.595Z,50.50
2018-12-20T01:33:27.922Z,54.70
2018-12-20T01:35:58.276Z,47.98
2018-12-20T01:38:27.036Z,47.95
2018-12-20T01:40:55.753Z,49.38
2018-12-20T01:43:24.656Z,52.50
2018-12-20T01:45:52.815Z,48.55
2018-12-20T01:48:21.428Z,49.15
2018-12-20T01:50:50.320Z,46.77
2018-12-20T01:53:18.609Z,49.65
2018-12-20T01:55:47.903Z,53.10
2018-12-20T01:58:16.173Z,49.90
2018-12-20T02:00:45.555Z,51.63
2018-12-20T02:03:14.536Z,49.35
2018-12-20T02:05:42.701Z,47.90
2018-12-20T02:08:12.733Z,47.67
2018-12-20T02:10:42.178Z,49.50
2018-12-20T02:13:11.811Z,51.20
2018-12-20T02:15:40.062Z,45.25
2018-12-20T02:18:08.977Z,46.75
2018-12-20T02:20:38.491Z,48.52
2018-12-20T02:23:13.024Z,51.75
2018-12-20T02:25:41.827Z,49.08
2018-12-20T02:28:10.832Z,49.77
2018-12-20T02:30:39.907Z,50.08
2018-12-20T02:33:08.292Z,51.13
2018-12-20T02:35:36.511Z,50.73
2018-12-20T02:38:05.311Z,49.70
2018-12-20T02:40:33.567Z,51.70
2018-12-20T02:43:02.403Z,50.30
2018-12-20T02:45:31.462Z,50.38
2018-12-20T02:48:00.243Z,49.35
2018-12-20T02:50:28.993Z,48.58
2018-12-20T02:52:58.833Z,45.00
2018-12-20T02:55:27.114Z,44.58
2018-12-20T02:57:55.601Z,44.38
2018-12-20T03:00:23.753Z,51.58
2018-12-20T03:02:52.329Z,47.75
2018-12-20T03:05:20.398Z,47.10
2018-12-20T03:07:49.272Z,44.05
2018-12-20T03:10:17.536Z,47.88
2018-12-20T03:12:45.500Z,44.35
2018-12-20T03:15:19.858Z,44.27
2018-12-20T03:17:44.982Z,44.55
2018-12-20T03:20:13.153Z,49.88
2018-12-20T03:22:42.653Z,45.03
2018-12-20T03:25:10.799Z,43.40
2018-12-20T03:27:39.109Z,39.90
2018-12-20T03:30:08.307Z,43.00
2018-12-20T03:32:38.027Z,43.83
2018-12-20T03:35:07.338Z,42.05
2018-12-20T03:37:36.628Z,43.55
2018-12-20T03:40:05.758Z,39.65
2018-12-20T03:42:34.506Z,41.30
2018-12-20T03:45:02.979Z,40.98
2018-12-20T03:47:31.904Z,42.67
2018-12-20T03:50:00.260Z,41.27
2018-12-20T03:52:28.967Z,41.30
2018-12-20T03:54:58.397Z,39.38
2018-12-20T03:57:27.748Z,39.58
2018-12-20T03:59:56.567Z,39.57
2018-12-20T04:02:25.046Z,43.50
2018-12-20T04:04:53.799Z,42.62
2018-12-20T04:07:23.051Z,40.40
2018-12-20T04:09:52.562Z,39.90
2018-12-20T04:12:21.316Z,39.63
2018-12-20T04:14:50.777Z,41.90
2018-12-20T04:17:20.317Z,42.75
2018-12-20T04:19:48.572Z,44.27
2018-12-20T04:22:17.905Z,40.27
2018-12-20T04:24:46.340Z,45.00
2018-12-20T04:27:14.310Z,42.15
2018-12-20T04:29:42.491Z,38.20
2018-12-20T04:32:11.348Z,38.17
2018-12-20T04:34:41.264Z,41.20
2018-12-20T04:37:09.686Z,38.92
2018-12-20T04:39:38.346Z,38.33
2018-12-20T04:42:06.749Z,40.13
2018-12-20T04:44:36.934Z,37.80
2018-12-20T04:47:05.002Z,39.50
2018-12-20T04:49:34.458Z,41.30
2018-12-20T04:52:02.762Z,41.17
2018-12-20T04:54:32.207Z,37.98
2018-12-20T04:57:00.585Z,37.60
2018-12-20T04:59:29.634Z,37.33
2018-12-20T05:01:58.551Z,42.00
2018-12-20T05:04:27.702Z,37.00
2018-12-20T05:06:56.199Z,37.70
2018-12-20T05:09:24.859Z,37.40
2018-12-20T05:11:54.683Z,33.57
2018-12-20T05:14:22.622Z,37.70
2018-12-20T05:16:51.777Z,41.30
2018-12-20T05:19:20.574Z,36.40
2018-12-20T05:21:50.001Z,37.63
2018-12-20T05:24:18.262Z,35.60
2018-12-20T05:26:46.433Z,34.07
2018-12-20T05:29:15.961Z,37.28
2018-12-20T05:31:44.863Z,37.23
2018-12-20T05:34:14.754Z,37.35
2018-12-20T05:36:43.618Z,39.10
2018-12-20T05:39:12.213Z,37.53
2018-12-20T05:41:40.351Z,35.53
2018-12-20T05:44:09.426Z,39.00
2018-12-20T05:46:38.676Z,38.53
2018-12-20T05:49:09.181Z,36.57
2018-12-20T05:51:39.159Z,36.57
2018-12-20T05:54:08.482Z,38.13
2018-12-20T05:56:38.609Z,33.80
2018-12-20T05:59:07.795Z,36.43
2018-12-20T06:01:37.106Z,35.00
2018-12-20T06:04:05.529Z,37.07
2018-12-20T06:06:33.785Z,36.60
2018-12-20T06:09:02.832Z,72.50
2018-12-20T06:11:31.833Z,63.23
2018-12-20T06:14:00.106Z,44.60
2018-12-20T06:16:28.195Z,47.37
2018-12-20T06:18:57.478Z,39.67
2018-12-20T06:21:25.638Z,42.83
2018-12-20T06:23:54.588Z,42.10
2018-12-20T06:26:22.728Z,41.90
2018-12-20T06:28:50.945Z,39.70
2018-12-20T06:31:19.196Z,39.67
2018-12-20T06:33:47.893Z,39.23
2018-12-20T06:36:15.964Z,42.30
2018-12-20T06:38:43.957Z,40.00
2018-12-20T06:41:12.064Z,36.03
2018-12-20T06:43:40.676Z,39.37
2018-12-20T06:46:09.019Z,40.50
2018-12-20T06:48:37.622Z,40.60
2018-12-20T06:51:05.568Z,41.23
2018-12-20T06:53:35.054Z,40.03
2018-12-20T06:56:04.587Z,41.97
2018-12-20T06:58:33.799Z,41.90
2018-12-20T07:01:02.786Z,49.40
2018-12-20T07:03:31.790Z,42.90
2018-12-20T07:06:00.851Z,40.57
2018-12-20T07:08:29.502Z,42.00
2018-12-20T07:11:00.123Z,45.77
2018-12-20T07:13:28.790Z,43.37
2018-12-20T07:15:56.945Z,39.50
2018-12-20T07:18:26.603Z,40.37
2018-12-20T07:20:55.901Z,45.33
2018-12-20T07:23:24.027Z,41.80
2018-12-20T07:25:53.251Z,41.93
2018-12-20T07:28:22.042Z,40.23
2018-12-20T07:30:52.491Z,43.80
2018-12-20T07:33:21.015Z,39.60
2018-12-20T07:35:49.797Z,39.63
2018-12-20T07:38:19.185Z,41.97
2018-12-20T07:40:49.241Z,41.07
2018-12-20T07:43:18.541Z,42.67
2018-12-20T07:45:47.629Z,43.30
2018-12-20T07:48:17.023Z,50.77
2018-12-20T07:50:45.942Z,40.63
2018-12-20T07:53:14.949Z,42.57
2018-12-20T07:55:44.680Z,47.90
2018-12-20T07:58:13.775Z,45.37
2018-12-20T08:00:42.463Z,40.53
2018-12-20T08:03:11.539Z,43.07
2018-12-20T08:05:40.855Z,42.43
2018-12-20T08:08:11.457Z,42.23
2018-12-20T08:10:41.102Z,43.37
2018-12-20T08:13:10.039Z,43.00
2018-12-20T08:15:38.679Z,41.30
2018-12-20T08:18:10.545Z,44.40
2018-12-20T08:20:40.138Z,41.17
2018-12-20T08:23:09.330Z,102.23
2018-12-20T08:25:38.083Z,52.57
2018-12-20T08:28:08.409Z,66.30
2018-12-20T08:30:37.628Z,46.23
2018-12-20T08:33:08.589Z,43.70
2018-12-20T08:35:39.040Z,45.20
2018-12-20T08:38:07.785Z,48.70
2018-12-20T08:40:36.759Z,44.20
2018-12-20T08:43:06.475Z,43.60
2018-12-20T08:45:34.542Z,42.87
2018-12-20T08:48:04.397Z,45.17
2018-12-20T08:50:40.049Z,42.50
2018-12-20T08:53:10.026Z,42.50
2018-12-20T08:55:39.380Z,44.17
2018-12-20T08:58:08.728Z,42.37
2018-12-20T09:00:38.464Z,43.80
2018-12-20T09:03:08.172Z,44.80
2018-12-20T09:05:37.839Z,43.53
2018-12-20T09:08:06.621Z,40.57
2018-12-20T09:10:34.663Z,46.00
2018-12-20T09:13:09.547Z,40.33
2018-12-20T09:15:36.723Z,43.20
2018-12-20T09:18:06.907Z,41.43
2018-12-20T09:20:35.129Z,41.30
2018-12-20T09:23:05.436Z,42.47
2018-12-20T09:25:35.063Z,42.80
2018-12-20T09:28:09.987Z,41.57
2018-12-20T09:30:40.613Z,46.43
2018-12-20T09:33:10.130Z,42.00
2018-12-20T09:35:47.814Z,43.10
2018-12-20T09:38:16.901Z,45.53
2018-12-20T09:40:45.745Z,42.37
2018-12-20T09:43:15.887Z,41.73
2018-12-20T09:45:45.709Z,40.80
2018-12-20T09:48:14.265Z,43.13
2018-12-20T09:50:46.894Z,39.43
2018-12-20T09:53:17.733Z,41.33
2018-12-20T09:55:47.491Z,45.93
2018-12-20T09:58:17.093Z,42.43
2018-12-20T10:00:46.763Z,40.93
2018-12-20T10:03:15.337Z,43.07
2018-12-20T10:05:43.396Z,41.00
2018-12-20T10:08:12.270Z,41.10
2018-12-20T10:10:41.810Z,42.07
2018-12-20T10:13:10.897Z,45.43
2018-12-20T10:15:43.666Z,41.00
2018-12-20T10:18:13.908Z,43.00
2018-12-20T10:20:46.485Z,43.53
2018-12-20T10:23:19.161Z,43.93
2018-12-20T10:25:49.286Z,43.53
2018-12-20T10:28:19.730Z,40.53
2018-12-20T10:30:50.845Z,43.87
2018-12-20T10:33:26.296Z,41.93
2018-12-20T10:36:03.786Z,41.77
2018-12-20T10:38:33.820Z,42.30
2018-12-20T10:41:07.113Z,39.77
2018-12-20T10:43:35.158Z,41.33
2018-12-20T10:46:08.303Z,41.43
2018-12-20T10:48:40.923Z,40.83
2018-12-20T10:51:11.009Z,41.70
2018-12-20T10:53:40.378Z,40.60
2018-12-20T10:56:09.104Z,40.70
2018-12-20T10:58:39.323Z,40.43
2018-12-20T11:01:14.587Z,41.03
2018-12-20T11:03:47.081Z,41.40
2018-12-20T11:06:22.223Z,41.40
2018-12-20T11:10:00.310Z,40.53
2018-12-20T11:12:35.210Z,38.50
2018-12-20T11:15:08.446Z,40.83
2018-12-20T11:17:38.780Z,42.20
2018-12-20T11:20:23.502Z,41.10
2018-12-20T11:22:52.542Z,42.70
2018-12-20T11:25:22.361Z,39.90
2018-12-20T11:27:53.067Z,39.70
2018-12-20T11:30:27.928Z,42.50
2018-12-20T11:32:59.583Z,39.20
2018-12-20T11:35:29.585Z,36.60
2018-12-20T11:37:57.869Z,39.30
2018-12-20T11:40:27.836Z,38.43
2018-12-20T11:42:59.431Z,40.47
2018-12-20T11:45:30.113Z,39.87
2018-12-20T11:48:06.433Z,38.27
2018-12-20T11:50:40.136Z,37.10
2018-12-20T11:53:09.242Z,41.23
2018-12-20T11:55:39.216Z,42.87
2018-12-20T11:58:10.291Z,41.13
2018-12-20T12:03:17.684Z,42.03
2018-12-20T12:05:45.726Z,41.90
2018-12-20T12:08:16.018Z,42.43
2018-12-20T12:10:45.485Z,42.67
2018-12-20T12:13:15.402Z,43.70
2018-12-20T12:15:46.641Z,44.63
2018-12-20T12:18:14.934Z,41.80
2018-12-20T12:20:44.856Z,43.73
2018-12-20T12:23:14.616Z,39.57
2018-12-20T12:25:43.546Z,39.60
2018-12-20T12:28:12.481Z,43.13
2018-12-20T12:30:40.714Z,43.50
2018-12-20T12:33:08.880Z,41.10
2018-12-20T12:41:37.513Z,44.53
2018-12-20T12:44:05.033Z,41.47
2018-12-20T12:46:32.694Z,43.70
2018-12-20T12:49:00.230Z,43.30
2018-12-20T12:51:27.764Z,42.97
2018-12-20T12:53:55.350Z,42.40
2018-12-20T12:56:22.870Z,43.87
2018-12-20T12:58:50.536Z,43.37
2018-12-20T13:01:18.102Z,43.03
2018-12-20T13:03:45.614Z,45.07
2018-12-20T13:06:13.133Z,44.27
2018-12-20T13:08:40.650Z,44.83
2018-12-20T13:11:08.185Z,45.13
2018-12-20T13:13:35.713Z,44.77
2018-12-20T13:16:03.366Z,48.20
2018-12-20T13:18:30.885Z,43.43
2018-12-20T13:20:58.397Z,44.53
2018-12-20T13:23:25.922Z,44.20
2018-12-20T13:25:53.600Z,44.67
2018-12-20T13:28:21.219Z,45.70
2018-12-20T13:30:48.806Z,45.73
2018-12-20T13:33:16.326Z,45.60
2018-12-20T13:35:43.858Z,42.87
2018-12-20T13:38:11.369Z,43.93
2018-12-20T13:40:39.010Z,42.60
2018-12-20T13:43:06.546Z,42.63
2018-12-20T13:45:34.072Z,44.80
2018-12-20T13:48:01.594Z,44.27
2018-12-20T13:50:29.116Z,46.03
2018-12-20T13:52:56.649Z,42.17
2018-12-20T13:55:24.162Z,57.20
2018-12-20T13:57:51.677Z,45.60
2018-12-20T14:00:19.397Z,61.70
2018-12-20T14:02:46.916Z,51.30
2018-12-20T14:05:14.349Z,44.57
2018-12-20T14:07:41.876Z,63.40
2018-12-20T14:10:09.577Z,41.87
2018-12-20T14:12:37.170Z,43.50
2018-12-20T14:15:06.810Z,45.40
2018-12-20T14:17:34.335Z,44.00
2018-12-20T14:20:01.860Z,44.23
2018-12-20T14:22:29.394Z,44.93
2018-12-20T14:24:56.922Z,46.87
2018-12-20T14:27:24.568Z,44.83
2018-12-20T14:29:52.101Z,46.03
2018-12-20T14:32:19.631Z,45.83
2018-12-20T14:34:47.132Z,46.33
2018-12-20T14:37:14.772Z,45.20
2018-12-20T14:39:42.293Z,44.53
2018-12-20T14:42:09.802Z,46.80
2018-12-20T14:44:37.358Z,67.07
2018-12-20T14:47:04.882Z,48.50
2018-12-20T14:49:32.456Z,49.47
2018-12-20T14:52:00.106Z,49.27
2018-12-20T14:54:27.650Z,50.20
2018-12-20T14:56:55.175Z,46.33
2018-12-20T14:59:22.698Z,46.50
2018-12-20T15:01:50.222Z,47.17
2018-12-20T15:04:17.753Z,51.70
2018-12-20T15:06:45.174Z,44.23
2018-12-20T15:09:12.713Z,46.53
2018-12-20T15:11:40.234Z,48.20
2018-12-20T15:14:07.756Z,53.20
2018-12-20T15:16:35.394Z,48.17
2018-12-20T15:19:03.089Z,50.53
2018-12-20T15:21:30.602Z,51.43
2018-12-20T15:23:58.159Z,49.37
2018-12-20T15:26:25.670Z,53.83
2018-12-20T15:28:53.205Z,45.73
2018-12-20T15:31:20.749Z,56.97
2018-12-20T15:33:48.267Z,55.07
2018-12-20T15:36:15.921Z,53.67
2018-12-20T15:38:43.562Z,49.60
2018-12-20T15:41:11.084Z,52.60
2018-12-20T15:43:38.593Z,49.23
2018-12-20T15:46:06.125Z,48.40
2018-12-20T15:48:33.646Z,51.30
2018-12-20T15:51:01.190Z,48.83
2018-12-20T15:53:28.713Z,48.80
2018-12-20T15:55:56.238Z,47.80
2018-12-20T15:58:23.786Z,49.53
2018-12-20T16:00:51.301Z,48.07
2018-12-20T16:03:18.835Z,47.00
2018-12-20T16:05:46.366Z,50.97
2018-12-20T16:08:13.871Z,48.20
2018-12-20T16:10:41.386Z,48.70
2018-12-20T16:13:09.032Z,54.83
2018-12-20T16:15:36.549Z,54.17
2018-12-20T16:18:04.092Z,55.13
2018-12-20T16:20:31.846Z,53.93
2018-12-20T16:22:59.481Z,74.60
2018-12-20T16:25:26.992Z,67.90
2018-12-20T16:27:54.537Z,60.10
2018-12-20T16:30:22.069Z,82.20
2018-12-20T16:32:49.613Z,72.78
2018-12-20T16:35:17.185Z,70.28
2018-12-20T16:37:44.710Z,79.65
2018-12-20T16:40:12.474Z,64.03
2018-12-20T16:42:39.986Z,62.07
2018-12-20T16:45:07.998Z,60.33
2018-12-20T16:47:35.513Z,62.23
2018-12-20T16:50:03.994Z,69.57
2018-12-20T16:52:31.519Z,65.83
2018-12-20T16:54:59.046Z,64.70
2018-12-20T16:57:26.598Z,67.60
2018-12-20T16:59:54.154Z,65.43
2018-12-20T17:02:21.726Z,63.37
2018-12-20T17:04:49.234Z,59.57
2018-12-20T17:07:16.753Z,69.17
2018-12-20T17:09:44.443Z,70.70
2018-12-20T17:12:11.954Z,56.00
2018-12-20T17:14:39.613Z,50.73
2018-12-20T17:17:07.185Z,48.90
2018-12-20T17:19:34.694Z,46.33
2018-12-20T17:22:02.366Z,45.97
2018-12-20T17:24:29.918Z,49.53
2018-12-20T17:26:57.467Z,44.08
2018-12-20T17:29:25.106Z,47.37
2018-12-20T17:31:52.641Z,48.13
2018-12-20T17:34:20.189Z,49.83
2018-12-20T17:36:47.732Z,53.23
2018-12-20T17:39:15.249Z,46.57
2018-12-20T17:41:42.694Z,49.47
2018-12-20T17:44:10.210Z,50.10
2018-12-20T17:46:37.731Z,47.40
2018-12-20T17:49:05.274Z,49.17
2018-12-20T17:51:32.949Z,47.27
2018-12-20T17:54:00.521Z,50.30
2018-12-20T17:56:28.046Z,49.27
2018-12-20T17:58:55.601Z,51.93
2018-12-20T18:01:23.273Z,53.13
2018-12-20T18:03:50.821Z,49.20
2018-12-20T18:06:18.481Z,48.73
2018-12-20T18:08:46.076Z,53.73
2018-12-20T18:11:13.493Z,50.30
2018-12-20T18:13:41.051Z,49.40
2018-12-20T18:16:08.618Z,51.23
2018-12-20T18:18:36.197Z,54.80
2018-12-20T18:21:03.717Z,51.53
2018-12-20T18:23:31.298Z,53.52
2018-12-20T18:25:58.821Z,51.73
2018-12-20T18:28:26.341Z,53.35
2018-12-20T18:30:53.849Z,53.03
2018-12-20T18:33:21.371Z,53.87
2018-12-20T18:35:48.887Z,53.38
2018-12-20T18:38:16.543Z,50.40
2018-12-20T18:40:44.068Z,52.25
2018-12-20T18:43:11.598Z,46.80
2018-12-20T18:45:39.090Z,51.33
2018-12-20T18:48:06.606Z,48.97
2018-12-20T18:50:34.197Z,51.05
2018-12-20T18:53:01.728Z,54.98
2018-12-20T18:55:29.479Z,51.83
2018-12-20T18:57:57.045Z,56.00
2018-12-20T19:00:24.581Z,58.90
2018-12-20T19:02:52.111Z,56.15
2018-12-20T19:05:19.802Z,58.20
2018-12-20T19:07:47.312Z,62.38
2018-12-20T19:10:14.850Z,66.00
2018-12-20T19:12:42.439Z,56.63
2018-12-20T19:15:10.005Z,63.30
2018-12-20T19:17:37.557Z,56.68
2018-12-20T19:20:15.831Z,53.52
2018-12-20T19:22:36.909Z,56.08
2018-12-20T19:25:05.230Z,56.88
2018-12-20T19:27:32.758Z,55.40
2018-12-20T19:30:00.278Z,56.80
2018-12-20T19:32:27.810Z,57.13
2018-12-20T19:34:55.326Z,59.95
2018-12-20T19:37:22.810Z,60.28
2018-12-20T19:39:54.901Z,58.68
2018-12-20T19:42:22.423Z,57.13
2018-12-20T19:44:49.957Z,58.30
2018-12-20T19:47:17.496Z,63.75
2018-12-20T19:49:45.138Z,63.30
2018-12-20T19:52:12.805Z,61.90
2018-12-20T19:54:47.766Z,62.83
2018-12-20T19:57:09.875Z,59.13
2018-12-20T19:59:38.802Z,56.53
2018-12-20T20:02:06.633Z,58.92
2018-12-20T20:04:34.062Z,51.25
2018-12-20T20:07:01.578Z,52.17
2018-12-20T20:09:29.105Z,53.73
2018-12-20T20:11:56.645Z,50.85
2018-12-20T20:14:24.298Z,51.53
2018-12-20T20:16:51.942Z,47.65
2018-12-20T20:19:19.374Z,53.75
2018-12-20T20:21:46.881Z,55.20
2018-12-20T20:24:14.462Z,58.50
2018-12-20T20:26:41.993Z,57.58
2018-12-20T20:29:09.682Z,62.50
2018-12-20T20:31:37.221Z,57.55
2018-12-20T20:34:04.753Z,55.75
2018-12-20T20:36:32.394Z,55.30
2018-12-20T20:39:02.083Z,57.90
2018-12-20T20:41:29.454Z,54.53
2018-12-20T20:43:56.997Z,55.67
2018-12-20T20:46:24.521Z,53.83
2018-12-20T20:48:52.034Z,57.50
2018-12-20T20:51:19.564Z,51.80
2018-12-20T20:53:47.072Z,56.83
2018-12-20T20:56:14.591Z,53.90
2018-12-20T20:58:42.101Z,53.23
2018-12-20T21:01:09.625Z,57.47
2018-12-20T21:03:37.136Z,52.47
2018-12-20T21:06:04.693Z,54.00
2018-12-20T21:08:32.213Z,52.57
2018-12-20T21:10:59.734Z,52.93
2018-12-20T21:13:27.254Z,54.30
2018-12-20T21:15:54.782Z,51.50
2018-12-20T21:18:22.331Z,55.50
2018-12-20T21:20:49.852Z,52.93
2018-12-20T21:23:17.362Z,55.73
2018-12-20T21:25:44.878Z,54.10
2018-12-20T21:28:12.406Z,56.37
2018-12-20T21:30:39.913Z,55.47
2018-12-20T21:33:07.438Z,53.50
2018-12-20T21:35:34.950Z,57.07
2018-12-20T21:38:02.714Z,53.03
2018-12-20T21:40:30.269Z,55.00
2018-12-20T21:42:57.782Z,55.50
2018-12-20T21:45:25.286Z,55.43
2018-12-20T21:47:52.798Z,55.03
2018-12-20T21:50:20.337Z,49.40
2018-12-20T21:52:47.863Z,52.80
2018-12-20T21:55:15.382Z,51.73
2018-12-20T21:57:44.791Z,54.60
2018-12-20T22:00:12.589Z,56.60
2018-12-20T22:02:40.106Z,56.20
2018-12-20T22:05:07.781Z,54.60
2018-12-20T22:07:35.313Z,52.77
2018-12-20T22:10:03.749Z,53.35
2018-12-20T22:12:31.271Z,52.90
2018-12-20T22:14:58.796Z,52.53
2018-12-20T22:17:26.327Z,55.98
2018-12-20T22:19:58.559Z,52.53
2018-12-20T22:22:23.417Z,51.60
2018-12-20T22:24:50.929Z,56.17
2018-12-20T22:27:18.467Z,52.62
2018-12-20T22:29:45.990Z,54.23
2018-12-20T22:32:13.731Z,53.30
2018-12-20T22:34:41.320Z,51.13
2018-12-20T22:37:08.746Z,52.03
2018-12-20T22:39:36.284Z,52.50
2018-12-20T22:42:03.853Z,50.50
2018-12-20T22:44:31.378Z,54.98
2018-12-20T22:46:58.898Z,53.68
2018-12-20T22:49:26.414Z,52.40
2018-12-20T22:51:53.945Z,57.05
2018-12-20T22:54:21.682Z,54.03
2018-12-20T22:56:49.231Z,57.33
2018-12-20T22:59:16.799Z,53.28
2018-12-20T23:01:44.330Z,54.58
2018-12-20T23:04:11.862Z,52.48
2018-12-20T23:06:39.385Z,56.37
2018-12-20T23:09:06.898Z,57.85
2018-12-20T23:11:34.423Z,54.03
2018-12-20T23:14:01.962Z,56.68
2018-12-20T23:16:29.499Z,57.10
2018-12-20T23:18:57.029Z,52.35
2018-12-20T23:21:24.537Z,52.48
2018-12-20T23:23:52.125Z,54.60
2018-12-20T23:26:19.703Z,53.13
2018-12-20T23:28:47.214Z,54.33
2018-12-20T23:31:14.852Z,52.27
2018-12-20T23:33:42.386Z,50.20
2018-12-20T23:36:09.906Z,55.83
2018-12-20T23:38:37.422Z,56.53
2018-12-20T23:41:04.973Z,53.13
2018-12-20T23:43:32.504Z,52.85
2018-12-20T23:46:00.140Z,50.88
2018-12-20T23:48:27.657Z,50.50
2018-12-20T23:50:55.173Z,53.70
2018-12-20T23:53:22.686Z,52.95
2018-12-20T23:55:50.202Z,53.92
2018-12-20T23:58:17.714Z,50.45
